createdAt,value
2018-07-28T00:00:36.064Z,73.66
2018-07-28T00:03:04.479Z,74.08
2018-07-28T00:05:32.859Z,73.45
2018-07-28T00:08:01.291Z,74.27
2018-07-28T00:10:29.678Z,74.07
2018-07-28T00:12:58.118Z,73.34
2018-07-28T00:15:26.502Z,73.49
2018-07-28T00:17:54.902Z,73.42
2018-07-28T00:20:23.279Z,74.09
2018-07-28T00:22:51.698Z,73.80
2018-07-28T00:25:20.114Z,73.91
2018-07-28T00:27:48.514Z,73.94
2018-07-28T00:30:16.885Z,74.60
2018-07-28T00:32:45.290Z,74.42
2018-07-28T00:35:13.723Z,74.80
2018-07-28T00:37:42.126Z,75.34
2018-07-28T00:40:10.506Z,75.31
2018-07-28T00:42:39.142Z,75.44
2018-07-28T00:45:08.007Z,74.75
2018-07-28T00:47:36.414Z,74.92
2018-07-28T00:50:06.130Z,75.65
2018-07-28T00:52:34.534Z,75.68
2018-07-28T00:55:02.906Z,74.90
2018-07-28T00:57:31.306Z,74.93
2018-07-28T00:59:59.700Z,75.54
2018-07-28T01:02:28.098Z,75.08
2018-07-28T01:04:56.485Z,75.09
2018-07-28T01:07:24.890Z,76.05
2018-07-28T01:09:53.306Z,76.01
2018-07-28T01:12:21.713Z,76.16
2018-07-28T01:14:50.095Z,75.27
2018-07-28T01:17:18.489Z,76.07
2018-07-28T01:19:46.861Z,75.92
2018-07-28T01:22:15.286Z,75.22
2018-07-28T01:24:43.662Z,75.94
2018-07-28T01:27:12.065Z,75.77
2018-07-28T01:29:40.438Z,75.61
2018-07-28T01:32:08.842Z,76.44
2018-07-28T01:34:37.218Z,75.87
2018-07-28T01:37:05.711Z,76.80
2018-07-28T01:39:34.093Z,75.96
2018-07-28T01:42:02.499Z,76.23
2018-07-28T01:44:30.886Z,77.10
2018-07-28T01:46:59.298Z,76.89
2018-07-28T01:49:27.693Z,77.21
2018-07-28T01:51:56.069Z,76.70
2018-07-28T01:54:24.471Z,76.72
2018-07-28T01:56:52.929Z,75.93
2018-07-28T01:59:21.331Z,75.82
2018-07-28T02:01:49.718Z,75.98
2018-07-28T02:04:18.122Z,75.84
2018-07-28T02:06:46.506Z,76.73
2018-07-28T02:09:14.906Z,76.84
2018-07-28T02:11:43.338Z,76.07
2018-07-28T02:14:11.746Z,76.86
2018-07-28T02:16:40.117Z,76.77
2018-07-28T02:19:08.527Z,76.73
2018-07-28T02:21:36.926Z,75.73
2018-07-28T02:24:05.325Z,76.28
2018-07-28T02:26:33.739Z,76.53
2018-07-28T02:29:02.151Z,75.75
2018-07-28T02:31:30.530Z,76.15
2018-07-28T02:33:58.943Z,75.81
2018-07-28T02:36:27.325Z,75.84
2018-07-28T02:38:55.726Z,76.34
2018-07-28T02:41:24.102Z,75.81
2018-07-28T02:43:52.530Z,75.81
2018-07-28T02:46:20.905Z,75.93
2018-07-28T02:48:49.309Z,76.06
2018-07-28T02:51:17.686Z,76.75
2018-07-28T02:53:46.139Z,76.36
2018-07-28T02:56:15.581Z,76.89
2018-07-28T02:58:44.087Z,77.06
2018-07-28T03:01:12.479Z,76.20
2018-07-28T03:03:42.050Z,76.26
2018-07-28T03:06:10.426Z,76.14
2018-07-28T03:08:38.831Z,75.90
2018-07-28T03:11:07.327Z,76.27
2018-07-28T03:13:35.902Z,76.38
2018-07-28T03:16:10.872Z,76.94
2018-07-28T03:18:39.298Z,77.22
2018-07-28T03:21:07.715Z,76.41
2018-07-28T03:23:36.118Z,77.28
2018-07-28T03:26:04.507Z,76.70
2018-07-28T03:28:32.914Z,77.23
2018-07-28T03:31:01.299Z,76.48
2018-07-28T03:33:29.749Z,76.68
2018-07-28T03:35:58.121Z,77.13
2018-07-28T03:38:26.518Z,76.73
2018-07-28T03:40:54.895Z,77.51
2018-07-28T03:43:23.302Z,76.97
2018-07-28T03:45:51.720Z,77.01
2018-07-28T03:48:20.123Z,77.31
2018-07-28T03:50:48.501Z,77.24
2018-07-28T03:53:16.882Z,76.67
2018-07-28T03:55:45.286Z,76.95
2018-07-28T03:58:13.675Z,76.74
2018-07-28T04:00:42.075Z,77.24
2018-07-28T04:03:10.454Z,76.37
2018-07-28T04:05:38.891Z,76.45
2018-07-28T04:08:07.277Z,77.02
2018-07-28T04:10:35.678Z,77.17
2018-07-28T04:13:04.115Z,77.37
2018-07-28T04:15:32.505Z,76.39
2018-07-28T04:18:00.884Z,76.12
2018-07-28T04:20:29.298Z,75.71
2018-07-28T04:22:57.706Z,75.00
2018-07-28T04:25:26.118Z,75.36
2018-07-28T04:27:54.499Z,73.86
2018-07-28T04:30:22.930Z,73.71
2018-07-28T04:32:51.311Z,72.57
2018-07-28T04:35:19.722Z,72.13
2018-07-28T04:37:48.103Z,72.67
2018-07-28T04:40:16.535Z,72.65
2018-07-28T04:42:44.914Z,71.64
2018-07-28T04:45:13.333Z,72.30
2018-07-28T04:47:41.710Z,71.59
2018-07-28T04:50:10.111Z,70.84
2018-07-28T04:52:38.594Z,70.70
2018-07-28T04:55:07.322Z,70.60
2018-07-28T04:57:35.693Z,70.80
2018-07-28T05:00:05.148Z,69.68
2018-07-28T05:02:33.529Z,69.79
2018-07-28T05:05:01.931Z,70.61
2018-07-28T05:07:30.390Z,70.18
2018-07-28T05:09:58.741Z,69.47
2018-07-28T05:12:27.122Z,69.54
2018-07-28T05:14:55.531Z,70.37
2018-07-28T05:17:23.916Z,69.37
2018-07-28T05:19:52.319Z,70.09
2018-07-28T05:22:22.375Z,69.09
2018-07-28T05:24:50.787Z,70.08
2018-07-28T05:27:19.168Z,69.19
2018-07-28T05:29:47.572Z,69.16
2018-07-28T05:32:15.956Z,70.11
2018-07-28T05:34:44.359Z,69.72
2018-07-28T05:37:13.315Z,69.12
2018-07-28T05:39:41.726Z,70.12
2018-07-28T05:42:10.102Z,69.99
2018-07-28T05:44:38.548Z,69.52
2018-07-28T05:47:06.930Z,69.82
2018-07-28T05:49:35.348Z,70.02
2018-07-28T05:52:03.750Z,70.18
2018-07-28T05:54:32.132Z,70.28
2018-07-28T05:57:00.551Z,70.64
2018-07-28T05:59:28.933Z,70.74
2018-07-28T06:01:57.329Z,69.64
2018-07-28T06:04:25.707Z,69.71
2018-07-28T06:06:54.107Z,69.28
2018-07-28T06:09:22.484Z,69.97
2018-07-28T06:11:50.891Z,69.64
2018-07-28T06:14:19.266Z,68.79
2018-07-28T06:16:47.670Z,69.38
2018-07-28T06:19:16.143Z,68.44
2018-07-28T06:21:44.561Z,68.36
2018-07-28T06:24:13.069Z,67.44
2018-07-28T06:26:41.654Z,67.16
2018-07-28T06:29:10.037Z,67.43
2018-07-28T06:31:38.505Z,65.96
2018-07-28T06:34:06.855Z,64.62
2018-07-28T06:36:35.304Z,63.74
2018-07-28T06:39:04.151Z,63.76
2018-07-28T06:41:32.550Z,63.16
2018-07-28T06:44:00.939Z,62.71
2018-07-28T06:46:29.337Z,61.96
2018-07-28T06:48:57.723Z,61.50
2018-07-28T06:51:26.130Z,61.02
2018-07-28T06:53:54.525Z,59.74
2018-07-28T06:56:22.938Z,59.44
2018-07-28T06:58:51.578Z,59.34
2018-07-28T07:01:19.982Z,58.27
2018-07-28T07:03:48.638Z,57.93
2018-07-28T07:06:17.049Z,57.30
2018-07-28T07:08:45.421Z,57.68
2018-07-28T07:11:13.826Z,57.66
2018-07-28T07:13:42.259Z,56.92
2018-07-28T07:16:10.666Z,56.27
2018-07-28T07:18:39.042Z,57.20
2018-07-28T07:21:07.470Z,56.35
2018-07-28T07:23:35.842Z,55.98
2018-07-28T07:26:04.376Z,55.69
2018-07-28T07:28:32.770Z,55.49
2018-07-28T07:31:01.223Z,53.74
2018-07-28T07:33:29.606Z,54.51
2018-07-28T07:35:58.006Z,53.34
2018-07-28T07:38:26.407Z,53.66
2018-07-28T07:40:54.810Z,52.86
2018-07-28T07:43:23.305Z,52.42
2018-07-28T07:45:51.733Z,51.86
2018-07-28T07:48:20.115Z,51.40
2018-07-28T07:50:48.530Z,50.65
2018-07-28T07:53:16.910Z,49.91
2018-07-28T07:55:45.285Z,50.61
2018-07-28T07:58:13.675Z,49.40
2018-07-28T08:00:42.038Z,48.58
2018-07-28T08:03:10.450Z,48.73
2018-07-28T08:05:38.817Z,49.26
2018-07-28T08:08:07.215Z,49.32
2018-07-28T08:10:35.601Z,49.28
2018-07-28T08:13:03.999Z,48.17
2018-07-28T08:15:32.375Z,49.02
2018-07-28T08:18:00.774Z,47.90
2018-07-28T08:20:29.195Z,47.88
2018-07-28T08:22:57.633Z,46.55
2018-07-28T08:25:26.011Z,47.45
2018-07-28T08:27:54.484Z,46.45
2018-07-28T08:30:22.865Z,48.19
2018-07-28T08:32:51.266Z,47.73
2018-07-28T08:35:19.644Z,46.87
2018-07-28T08:37:48.066Z,45.87
2018-07-28T08:40:16.443Z,46.50
2018-07-28T08:42:44.849Z,45.19
2018-07-28T08:45:13.217Z,45.88
2018-07-28T08:47:41.610Z,45.94
2018-07-28T08:50:09.986Z,45.29
2018-07-28T08:52:38.373Z,44.71
2018-07-28T08:55:06.749Z,44.69
2018-07-28T08:57:35.151Z,45.29
2018-07-28T09:00:03.602Z,45.19
2018-07-28T09:02:32.050Z,44.50
2018-07-28T09:05:00.429Z,44.20
2018-07-28T09:07:28.834Z,43.27
2018-07-28T09:09:57.215Z,42.62
2018-07-28T09:12:25.629Z,42.23
2018-07-28T09:14:54.005Z,42.16
2018-07-28T09:17:22.415Z,41.85
2018-07-28T09:19:50.794Z,42.01
2018-07-28T09:22:19.221Z,41.65
2018-07-28T09:24:47.623Z,42.11
2018-07-28T09:27:16.031Z,41.56
2018-07-28T09:29:44.423Z,40.91
2018-07-28T09:32:12.830Z,41.34
2018-07-28T09:34:41.223Z,40.21
2018-07-28T09:37:09.634Z,40.64
2018-07-28T09:39:38.031Z,38.68
2018-07-28T09:42:06.499Z,38.55
2018-07-28T09:44:34.870Z,38.50
2018-07-28T09:47:03.401Z,38.66
2018-07-28T09:49:31.678Z,37.84
2018-07-28T09:52:00.047Z,37.01
2018-07-28T09:54:29.181Z,37.67
2018-07-28T09:56:57.584Z,37.14
2018-07-28T09:59:26.040Z,37.32
2018-07-28T10:01:54.413Z,37.33
2018-07-28T10:04:22.841Z,35.92
2018-07-28T10:06:51.209Z,36.44
2018-07-28T10:09:19.618Z,37.82
2018-07-28T10:11:47.997Z,37.79
2018-07-28T10:14:16.402Z,37.16
2018-07-28T10:16:44.769Z,38.28
2018-07-28T10:19:13.224Z,37.31
2018-07-28T10:21:41.724Z,37.09
2018-07-28T10:24:10.277Z,37.29
2018-07-28T10:26:38.693Z,35.81
2018-07-28T10:29:07.094Z,35.17
2018-07-28T10:31:35.475Z,35.41
2018-07-28T10:34:03.876Z,35.89
2018-07-28T10:36:32.407Z,36.03
2018-07-28T10:39:00.866Z,35.26
2018-07-28T10:41:29.237Z,35.27
2018-07-28T10:43:57.731Z,35.17
2018-07-28T10:46:26.099Z,35.66
2018-07-28T10:48:54.511Z,35.33
2018-07-28T10:51:22.896Z,35.57
2018-07-28T10:53:51.285Z,34.23
2018-07-28T10:56:19.695Z,35.74
2018-07-28T10:58:48.093Z,35.54
2018-07-28T11:01:16.483Z,34.61
2018-07-28T11:03:44.877Z,35.57
2018-07-28T11:06:13.268Z,34.74
2018-07-28T11:08:41.663Z,33.98
2018-07-28T11:11:10.115Z,33.34
2018-07-28T11:13:38.508Z,33.81
2018-07-28T11:16:06.891Z,33.44
2018-07-28T11:18:35.315Z,34.40
2018-07-28T11:21:03.742Z,33.96
2018-07-28T11:23:43.537Z,34.48
2018-07-28T11:26:12.010Z,34.05
2018-07-28T11:28:40.371Z,32.93
2018-07-28T11:31:19.309Z,33.21
2018-07-28T11:33:59.075Z,31.79
2018-07-28T11:36:38.852Z,32.92
2018-07-28T11:39:18.646Z,32.20
2018-07-28T11:41:58.247Z,32.85
2018-07-28T11:45:30.983Z,33.50
2018-07-28T11:47:59.356Z,32.99
2018-07-28T11:50:27.798Z,32.91
2018-07-28T11:52:56.167Z,32.30
2018-07-28T11:55:24.563Z,32.47
2018-07-28T11:57:52.931Z,32.55
2018-07-28T12:00:21.323Z,32.14
2018-07-28T12:02:49.693Z,32.32
2018-07-28T12:05:18.091Z,32.09
2018-07-28T12:07:46.463Z,32.20
2018-07-28T12:10:14.932Z,31.25
2018-07-28T12:12:43.328Z,31.38
2018-07-28T12:15:11.738Z,30.68
2018-07-28T12:17:40.127Z,30.90
2018-07-28T12:20:08.525Z,31.39
2018-07-28T12:22:36.913Z,30.48
2018-07-28T12:25:05.493Z,31.37
2018-07-28T12:27:33.878Z,31.14
2018-07-28T12:30:02.274Z,30.38
2018-07-28T12:32:30.647Z,30.33
2018-07-28T12:34:59.128Z,30.34
2018-07-28T12:37:27.439Z,29.47
2018-07-28T12:39:55.829Z,29.86
2018-07-28T12:42:24.280Z,29.29
2018-07-28T12:44:52.782Z,30.57
2018-07-28T12:47:21.228Z,30.98
2018-07-28T12:49:49.626Z,31.22
2018-07-28T12:52:17.998Z,30.21
2018-07-28T12:54:46.405Z,29.21
2018-07-28T12:57:14.857Z,30.43
2018-07-28T12:59:43.465Z,31.17
2018-07-28T13:02:11.837Z,30.67
2018-07-28T13:04:40.255Z,31.38
2018-07-28T13:07:08.671Z,30.98
2018-07-28T13:09:37.048Z,31.03
2018-07-28T13:12:05.463Z,30.95
2018-07-28T13:14:33.854Z,29.76
2018-07-28T13:17:02.267Z,30.58
2018-07-28T13:19:30.653Z,30.65
2018-07-28T13:21:59.067Z,29.65
2018-07-28T13:24:27.433Z,29.66
2018-07-28T13:26:55.941Z,29.74
2018-07-28T13:29:24.402Z,30.27
2018-07-28T13:31:52.824Z,29.71
2018-07-28T13:34:21.195Z,30.67
2018-07-28T13:36:49.585Z,29.19
2018-07-28T13:39:17.962Z,28.99
2018-07-28T13:41:46.385Z,30.30
2018-07-28T13:44:14.753Z,29.27
2018-07-28T13:46:43.147Z,29.92
2018-07-28T13:49:11.523Z,30.75
2018-07-28T13:51:39.951Z,30.44
2018-07-28T13:54:08.329Z,30.26
2018-07-28T13:56:36.738Z,30.92
2018-07-28T13:59:05.498Z,30.27
2018-07-28T14:01:33.882Z,30.52
2018-07-28T14:04:02.253Z,30.50
2018-07-28T14:06:30.637Z,31.02
2018-07-28T14:08:59.395Z,30.99
2018-07-28T14:11:27.789Z,30.48
2018-07-28T14:13:56.154Z,30.10
2018-07-28T14:16:24.574Z,30.33
2018-07-28T14:18:52.999Z,29.03
2018-07-28T14:21:21.411Z,28.47
2018-07-28T14:23:49.785Z,28.52
2018-07-28T14:26:18.177Z,28.83
2018-07-28T14:28:46.537Z,29.76
2018-07-28T14:31:14.925Z,29.75
2018-07-28T14:33:43.295Z,29.85
2018-07-28T14:36:11.693Z,30.12
2018-07-28T14:38:40.066Z,30.71
2018-07-28T14:41:08.562Z,30.34
2018-07-28T14:43:36.929Z,31.15
2018-07-28T14:46:05.344Z,31.28
2018-07-28T14:48:33.718Z,31.09
2018-07-28T14:51:02.109Z,30.54
2018-07-28T14:53:30.527Z,30.68
2018-07-28T14:55:58.922Z,31.07
2018-07-28T14:58:27.299Z,31.20
2018-07-28T15:00:55.689Z,31.02
2018-07-28T15:03:24.061Z,31.25
2018-07-28T15:05:52.462Z,31.05
2018-07-28T15:08:20.898Z,31.53
2018-07-28T15:10:49.321Z,31.56
2018-07-28T15:13:17.785Z,31.40
2018-07-28T15:15:46.159Z,31.67
2018-07-28T15:18:14.557Z,30.71
2018-07-28T15:20:42.929Z,30.32
2018-07-28T15:23:11.337Z,29.29
2018-07-28T15:25:39.701Z,29.18
2018-07-28T15:28:08.095Z,28.88
2018-07-28T15:30:36.465Z,28.94
2018-07-28T15:33:04.876Z,28.51
2018-07-28T15:35:33.242Z,28.19
2018-07-28T15:38:01.633Z,28.86
2018-07-28T15:40:30.000Z,29.13
2018-07-28T15:42:58.431Z,27.75
2018-07-28T15:45:26.805Z,28.50
2018-07-28T15:47:55.233Z,28.36
2018-07-28T15:50:23.591Z,27.15
2018-07-28T15:52:51.991Z,27.46
2018-07-28T15:55:20.353Z,27.75
2018-07-28T15:57:48.743Z,28.75
2018-07-28T16:00:18.585Z,28.75
2018-07-28T16:02:47.761Z,28.32
2018-07-28T16:05:16.294Z,28.11
2018-07-28T16:07:44.687Z,27.80
2018-07-28T16:10:13.053Z,28.62
2018-07-28T16:12:41.450Z,28.86
2018-07-28T16:15:09.877Z,28.42
2018-07-28T16:17:38.267Z,28.06
2018-07-28T16:20:06.725Z,28.23
2018-07-28T16:22:35.166Z,28.86
2018-07-28T16:25:03.653Z,28.35
2018-07-28T16:27:32.085Z,27.22
2018-07-28T16:30:00.473Z,27.70
2018-07-28T16:32:28.865Z,27.85
2018-07-28T16:34:57.246Z,28.21
2018-07-28T16:37:25.645Z,28.99
2018-07-28T16:39:54.054Z,29.01
2018-07-28T16:42:22.441Z,29.34
2018-07-28T16:44:50.872Z,29.66
2018-07-28T16:47:19.256Z,29.00
2018-07-28T16:49:47.613Z,27.87
2018-07-28T16:52:16.046Z,27.68
2018-07-28T16:54:44.406Z,27.18
2018-07-28T16:57:12.793Z,27.39
2018-07-28T16:59:41.167Z,27.73
2018-07-28T17:02:09.724Z,26.73
2018-07-28T17:04:38.110Z,26.98
2018-07-28T17:07:06.576Z,27.93
2018-07-28T17:09:34.936Z,27.63
2018-07-28T17:12:03.333Z,28.02
2018-07-28T17:14:31.725Z,29.18
2018-07-28T17:17:00.085Z,29.39
2018-07-28T17:19:28.509Z,29.05
2018-07-28T17:21:56.906Z,28.81
2018-07-28T17:24:25.307Z,29.57
2018-07-28T17:26:53.699Z,31.28
2018-07-28T17:29:22.090Z,31.89
2018-07-28T17:31:50.469Z,32.12
2018-07-28T17:34:18.869Z,32.34
2018-07-28T17:36:47.252Z,33.01
2018-07-28T17:39:15.663Z,33.64
2018-07-28T17:41:44.062Z,32.94
2018-07-28T17:44:12.474Z,33.70
2018-07-28T17:46:40.907Z,34.12
2018-07-28T17:49:09.294Z,34.57
2018-07-28T17:51:37.676Z,34.73
2018-07-28T17:54:06.074Z,35.66
2018-07-28T17:56:34.653Z,36.08
2018-07-28T17:59:03.049Z,37.51
2018-07-28T18:01:31.475Z,37.73
2018-07-28T18:03:59.887Z,39.25
2018-07-28T18:06:28.254Z,39.32
2018-07-28T18:08:56.650Z,40.34
2018-07-28T18:11:25.021Z,40.95
2018-07-28T18:13:53.413Z,41.86
2018-07-28T18:16:22.003Z,42.78
2018-07-28T18:18:50.410Z,42.89
2018-07-28T18:21:18.811Z,44.31
2018-07-28T18:23:47.249Z,44.08
2018-07-28T18:26:15.610Z,45.30
2018-07-28T18:28:44.001Z,45.50
2018-07-28T18:31:12.387Z,45.98
2018-07-28T18:33:40.790Z,47.15
2018-07-28T18:36:09.164Z,47.56
2018-07-28T18:38:37.561Z,47.67
2018-07-28T18:41:05.943Z,48.55
2018-07-28T18:43:34.333Z,49.32
2018-07-28T18:46:02.706Z,49.90
2018-07-28T18:48:31.106Z,49.36
2018-07-28T18:50:59.483Z,50.93
2018-07-28T18:53:27.911Z,50.33
2018-07-28T18:55:56.292Z,51.59
2018-07-28T18:58:24.700Z,50.53
2018-07-28T19:00:53.094Z,50.65
2018-07-28T19:03:21.599Z,52.32
2018-07-28T19:05:50.093Z,51.80
2018-07-28T19:08:18.475Z,51.70
2018-07-28T19:10:46.909Z,53.46
2018-07-28T19:13:20.568Z,52.88
2018-07-28T19:15:48.966Z,52.81
2018-07-28T19:18:22.697Z,52.91
2018-07-28T19:20:51.247Z,53.37
2018-07-28T19:23:24.835Z,53.27
2018-07-28T19:25:53.266Z,53.27
2018-07-28T19:28:27.103Z,53.48
2018-07-28T19:30:55.593Z,53.87
2018-07-28T19:33:23.980Z,54.74
2018-07-28T19:35:57.800Z,54.27
2018-07-28T19:38:26.209Z,54.95
2018-07-28T19:40:54.610Z,55.55
2018-07-28T19:43:23.075Z,54.73
2018-07-28T19:45:51.495Z,55.36
2018-07-28T19:48:19.861Z,55.04
2018-07-28T19:50:48.250Z,55.01
2018-07-28T19:53:16.622Z,57.23
2018-07-28T19:55:45.039Z,59.08
2018-07-28T19:58:13.419Z,60.19
2018-07-28T20:00:41.905Z,61.26
2018-07-28T20:03:10.282Z,61.75
2018-07-28T20:05:38.678Z,61.84
2018-07-28T20:08:07.295Z,62.96
2018-07-28T20:10:35.695Z,64.34
2018-07-28T20:13:04.066Z,66.44
2018-07-28T20:15:32.539Z,66.13
2018-07-28T20:18:00.917Z,67.08
2018-07-28T20:20:29.336Z,67.29
2018-07-28T20:22:57.738Z,67.39
2018-07-28T20:25:26.142Z,69.14
2018-07-28T20:27:54.527Z,68.26
2018-07-28T20:30:22.921Z,69.54
2018-07-28T20:32:51.293Z,69.48
2018-07-28T20:35:19.698Z,69.74
2018-07-28T20:37:48.081Z,70.34
2018-07-28T20:40:16.534Z,69.93
2018-07-28T20:42:44.911Z,71.30
2018-07-28T20:45:13.323Z,71.08
2018-07-28T20:47:41.697Z,70.53
2018-07-28T20:50:10.104Z,71.04
2018-07-28T20:52:38.531Z,70.86
2018-07-28T20:55:06.934Z,70.87
2018-07-28T20:57:35.514Z,71.97
2018-07-28T21:00:04.103Z,72.01
2018-07-28T21:02:32.487Z,73.36
2018-07-28T21:05:00.902Z,72.82
2018-07-28T21:07:29.273Z,73.03
2018-07-28T21:09:57.656Z,73.87
2018-07-28T21:12:26.063Z,73.56
2018-07-28T21:14:54.587Z,74.23
2018-07-28T21:17:23.011Z,75.20
2018-07-28T21:19:51.394Z,75.20
2018-07-28T21:22:20.042Z,73.90
2018-07-28T21:24:48.419Z,74.70
2018-07-28T21:27:16.822Z,72.77
2018-07-28T21:29:45.227Z,73.30
2018-07-28T21:32:13.631Z,73.17
2018-07-28T21:34:42.012Z,74.02
2018-07-28T21:37:10.414Z,74.54
2018-07-28T21:39:38.791Z,75.47
2018-07-28T21:42:07.191Z,75.33
2018-07-28T21:44:35.575Z,75.09
2018-07-28T21:47:03.997Z,75.26
2018-07-28T21:49:32.373Z,75.95
2018-07-28T21:52:00.765Z,76.03
2018-07-28T21:54:29.146Z,76.92
2018-07-28T21:56:57.558Z,77.73
2018-07-28T21:59:25.956Z,76.96
2018-07-28T22:01:54.364Z,76.71
2018-07-28T22:04:25.638Z,76.42
2018-07-28T22:06:54.033Z,76.49
2018-07-28T22:09:22.415Z,75.40
2018-07-28T22:11:50.825Z,75.06
2018-07-28T22:14:19.216Z,74.87
2018-07-28T22:16:47.627Z,75.95
2018-07-28T22:19:16.015Z,76.99
2018-07-28T22:21:44.445Z,75.94
2018-07-28T22:24:12.848Z,77.47
2018-07-28T22:26:41.243Z,76.59
2018-07-28T22:29:09.614Z,77.40
2018-07-28T22:31:38.023Z,76.56
2018-07-28T22:34:06.833Z,77.50
2018-07-28T22:36:35.231Z,76.52
2018-07-28T22:39:03.671Z,76.85
2018-07-28T22:41:32.075Z,76.97
2018-07-28T22:44:00.458Z,77.36
2018-07-28T22:46:28.856Z,77.45
2018-07-28T22:48:57.234Z,76.47
2018-07-28T22:51:25.632Z,77.13
2018-07-28T22:53:54.001Z,76.85
2018-07-28T22:56:22.397Z,76.71
2018-07-28T22:58:50.771Z,77.64
2018-07-28T23:01:19.221Z,77.45
2018-07-28T23:03:47.607Z,77.43
2018-07-28T23:06:15.990Z,77.52
2018-07-28T23:08:44.493Z,78.92
2018-07-28T23:11:12.873Z,78.71
2018-07-28T23:13:41.283Z,79.25
2018-07-28T23:16:09.680Z,78.86
2018-07-28T23:18:38.078Z,78.53
2018-07-28T23:21:06.637Z,78.72
2018-07-28T23:23:35.035Z,78.91
2018-07-28T23:26:03.415Z,79.13
2018-07-28T23:28:31.818Z,79.54
2018-07-28T23:31:00.211Z,79.21
2018-07-28T23:33:28.619Z,79.77
2018-07-28T23:35:56.993Z,79.26
2018-07-28T23:38:25.396Z,80.22
2018-07-28T23:40:53.786Z,79.77
2018-07-28T23:43:22.204Z,79.89
2018-07-28T23:45:50.580Z,78.86
2018-07-28T23:48:19.068Z,79.27
2018-07-28T23:50:47.457Z,79.01
2018-07-28T23:53:15.858Z,79.12
2018-07-28T23:55:44.241Z,78.64
2018-07-28T23:58:12.638Z,79.70
